sensor_id;sensor_type;location;lat;lon;timestamp;P1;durP1;ratioP1;P2;durP2;ratioP2
67041;SDS011;53949;47.790;18.750;2022-12-18T00:01:46;37.47;;;15.40;;
67041;SDS011;53949;47.790;18.750;2022-12-18T00:04:51;46.55;;;16.65;;
67041;SDS011;53949;47.790;18.750;2022-12-18T00:07:54;43.85;;;15.38;;
67041;SDS011;53949;47.790;18.750;2022-12-18T00:11:02;36.05;;;14.35;;
67041;SDS011;53949;47.790;18.750;2022-12-18T00:14:09;43.05;;;15.52;;
67041;SDS011;53949;47.790;18.750;2022-12-18T00:17:14;42.67;;;16.33;;
67041;SDS011;53949;47.790;18.750;2022-12-18T00:20:17;46.37;;;15.45;;
67041;SDS011;53949;47.790;18.750;2022-12-18T00:23:26;44.88;;;15.27;;
67041;SDS011;53949;47.790;18.750;2022-12-18T00:26:31;41.05;;;15.68;;
67041;SDS011;53949;47.790;18.750;2022-12-18T00:29:36;37.67;;;14.98;;
67041;SDS011;53949;47.790;18.750;2022-12-18T00:32:42;41.47;;;15.77;;
67041;SDS011;53949;47.790;18.750;2022-12-18T00:35:45;39.97;;;15.80;;
67041;SDS011;53949;47.790;18.750;2022-12-18T00:38:48;37.45;;;14.35;;
67041;SDS011;53949;47.790;18.750;2022-12-18T00:41:52;39.33;;;15.02;;
67041;SDS011;53949;47.790;18.750;2022-12-18T00:45:14;42.72;;;14.30;;
67041;SDS011;53949;47.790;18.750;2022-12-18T00:48:17;47.05;;;15.27;;
67041;SDS011;53949;47.790;18.750;2022-12-18T00:51:20;40.67;;;16.90;;
67041;SDS011;53949;47.790;18.750;2022-12-18T00:54:23;44.95;;;18.50;;
67041;SDS011;53949;47.790;18.750;2022-12-18T00:57:26;36.75;;;14.95;;
67041;SDS011;53949;47.790;18.750;2022-12-18T01:00:30;43.20;;;17.02;;
67041;SDS011;53949;47.790;18.750;2022-12-18T01:03:33;38.90;;;15.55;;
67041;SDS011;53949;47.790;18.750;2022-12-18T01:06:36;50.50;;;17.85;;
67041;SDS011;53949;47.790;18.750;2022-12-18T01:09:39;42.00;;;16.60;;
67041;SDS011;53949;47.790;18.750;2022-12-18T01:12:43;52.17;;;17.40;;
67041;SDS011;53949;47.790;18.750;2022-12-18T01:15:48;40.70;;;15.88;;
67041;SDS011;53949;47.790;18.750;2022-12-18T01:18:54;44.38;;;16.67;;
67041;SDS011;53949;47.790;18.750;2022-12-18T01:21:58;47.80;;;16.23;;
67041;SDS011;53949;47.790;18.750;2022-12-18T01:25:02;49.30;;;17.50;;
67041;SDS011;53949;47.790;18.750;2022-12-18T01:28:06;47.65;;;18.25;;
67041;SDS011;53949;47.790;18.750;2022-12-18T01:34:24;47.67;;;17.50;;
67041;SDS011;53949;47.790;18.750;2022-12-18T01:37:27;44.78;;;16.25;;
67041;SDS011;53949;47.790;18.750;2022-12-18T01:40:30;46.80;;;16.77;;
67041;SDS011;53949;47.790;18.750;2022-12-18T01:43:42;44.80;;;16.93;;
67041;SDS011;53949;47.790;18.750;2022-12-18T01:46:46;44.00;;;16.17;;
67041;SDS011;53949;47.790;18.750;2022-12-18T01:49:49;47.67;;;16.15;;
67041;SDS011;53949;47.790;18.750;2022-12-18T01:52:56;39.65;;;14.77;;
67041;SDS011;53949;47.790;18.750;2022-12-18T01:56:02;39.83;;;15.65;;
67041;SDS011;53949;47.790;18.750;2022-12-18T01:59:06;42.50;;;15.70;;
67041;SDS011;53949;47.790;18.750;2022-12-18T02:02:11;47.47;;;16.90;;
67041;SDS011;53949;47.790;18.750;2022-12-18T02:05:16;37.45;;;14.15;;
67041;SDS011;53949;47.790;18.750;2022-12-18T02:08:28;42.97;;;16.05;;
67041;SDS011;53949;47.790;18.750;2022-12-18T02:11:40;48.25;;;16.45;;
67041;SDS011;53949;47.790;18.750;2022-12-18T02:15:03;39.50;;;15.07;;
67041;SDS011;53949;47.790;18.750;2022-12-18T02:18:30;44.88;;;16.20;;
67041;SDS011;53949;47.790;18.750;2022-12-18T02:28:28;33.10;;;14.63;;
67041;SDS011;53949;47.790;18.750;2022-12-18T02:31:36;33.85;;;14.45;;
67041;SDS011;53949;47.790;18.750;2022-12-18T02:34:42;42.13;;;16.45;;
67041;SDS011;53949;47.790;18.750;2022-12-18T02:37:47;36.40;;;15.25;;
67041;SDS011;53949;47.790;18.750;2022-12-18T02:40:52;40.60;;;16.23;;
67041;SDS011;53949;47.790;18.750;2022-12-18T02:43:59;41.65;;;14.90;;
67041;SDS011;53949;47.790;18.750;2022-12-18T02:47:05;32.83;;;13.90;;
67041;SDS011;53949;47.790;18.750;2022-12-18T02:53:36;38.10;;;14.13;;
67041;SDS011;53949;47.790;18.750;2022-12-18T02:56:50;38.03;;;14.87;;
67041;SDS011;53949;47.790;18.750;2022-12-18T02:59:58;39.67;;;14.63;;
67041;SDS011;53949;47.790;18.750;2022-12-18T03:03:08;37.40;;;14.48;;
67041;SDS011;53949;47.790;18.750;2022-12-18T03:06:38;36.95;;;15.85;;
67041;SDS011;53949;47.790;18.750;2022-12-18T03:09:45;39.15;;;14.05;;
67041;SDS011;53949;47.790;18.750;2022-12-18T03:12:52;35.78;;;13.62;;
67041;SDS011;53949;47.790;18.750;2022-12-18T03:15:57;36.92;;;14.57;;
67041;SDS011;53949;47.790;18.750;2022-12-18T03:19:03;39.97;;;13.95;;
67041;SDS011;53949;47.790;18.750;2022-12-18T03:22:08;38.00;;;14.18;;
67041;SDS011;53949;47.790;18.750;2022-12-18T03:25:14;38.70;;;14.95;;
67041;SDS011;53949;47.790;18.750;2022-12-18T03:28:19;39.70;;;15.35;;
67041;SDS011;53949;47.790;18.750;2022-12-18T03:31:24;39.53;;;14.32;;
67041;SDS011;53949;47.790;18.750;2022-12-18T03:34:30;39.70;;;15.27;;
67041;SDS011;53949;47.790;18.750;2022-12-18T03:37:37;38.65;;;14.50;;
67041;SDS011;53949;47.790;18.750;2022-12-18T03:44:15;42.65;;;14.90;;
67041;SDS011;53949;47.790;18.750;2022-12-18T03:47:33;36.63;;;13.85;;
67041;SDS011;53949;47.790;18.750;2022-12-18T03:50:46;38.33;;;15.65;;
67041;SDS011;53949;47.790;18.750;2022-12-18T03:54:02;34.13;;;14.02;;
67041;SDS011;53949;47.790;18.750;2022-12-18T03:57:16;38.13;;;13.98;;
67041;SDS011;53949;47.790;18.750;2022-12-18T04:00:22;36.53;;;13.50;;
67041;SDS011;53949;47.790;18.750;2022-12-18T04:03:28;40.10;;;13.95;;
67041;SDS011;53949;47.790;18.750;2022-12-18T04:06:31;44.63;;;15.82;;
67041;SDS011;53949;47.790;18.750;2022-12-18T04:09:35;40.42;;;15.27;;
67041;SDS011;53949;47.790;18.750;2022-12-18T04:12:39;35.30;;;14.77;;
67041;SDS011;53949;47.790;18.750;2022-12-18T04:15:44;31.77;;;13.05;;
67041;SDS011;53949;47.790;18.750;2022-12-18T04:18:48;34.78;;;15.85;;
67041;SDS011;53949;47.790;18.750;2022-12-18T04:21:53;39.60;;;15.48;;
67041;SDS011;53949;47.790;18.750;2022-12-18T04:24:57;35.45;;;13.85;;
67041;SDS011;53949;47.790;18.750;2022-12-18T04:28:02;42.70;;;15.65;;
67041;SDS011;53949;47.790;18.750;2022-12-18T04:31:05;40.78;;;14.73;;
67041;SDS011;53949;47.790;18.750;2022-12-18T04:34:09;36.70;;;13.70;;
67041;SDS011;53949;47.790;18.750;2022-12-18T04:37:12;40.33;;;17.50;;
67041;SDS011;53949;47.790;18.750;2022-12-18T04:40:15;45.38;;;16.65;;
67041;SDS011;53949;47.790;18.750;2022-12-18T04:43:19;46.25;;;15.65;;
67041;SDS011;53949;47.790;18.750;2022-12-18T04:46:22;45.33;;;16.23;;
67041;SDS011;53949;47.790;18.750;2022-12-18T04:49:25;42.33;;;14.95;;
67041;SDS011;53949;47.790;18.750;2022-12-18T04:52:28;40.72;;;15.70;;
67041;SDS011;53949;47.790;18.750;2022-12-18T04:55:31;49.72;;;17.75;;
67041;SDS011;53949;47.790;18.750;2022-12-18T04:58:35;38.97;;;15.60;;
67041;SDS011;53949;47.790;18.750;2022-12-18T05:01:39;40.65;;;16.37;;
67041;SDS011;53949;47.790;18.750;2022-12-18T05:04:43;39.88;;;16.58;;
67041;SDS011;53949;47.790;18.750;2022-12-18T05:07:46;44.88;;;16.42;;
67041;SDS011;53949;47.790;18.750;2022-12-18T05:10:58;42.17;;;17.08;;
67041;SDS011;53949;47.790;18.750;2022-12-18T05:14:08;40.22;;;16.52;;
67041;SDS011;53949;47.790;18.750;2022-12-18T05:17:11;44.13;;;16.33;;
67041;SDS011;53949;47.790;18.750;2022-12-18T05:20:14;45.75;;;16.87;;
67041;SDS011;53949;47.790;18.750;2022-12-18T05:23:18;48.55;;;17.12;;
67041;SDS011;53949;47.790;18.750;2022-12-18T05:26:23;43.70;;;18.00;;
67041;SDS011;53949;47.790;18.750;2022-12-18T05:29:26;47.20;;;18.57;;
67041;SDS011;53949;47.790;18.750;2022-12-18T05:32:30;46.20;;;16.17;;
67041;SDS011;53949;47.790;18.750;2022-12-18T05:35:33;44.50;;;16.23;;
67041;SDS011;53949;47.790;18.750;2022-12-18T05:38:36;42.67;;;15.95;;
67041;SDS011;53949;47.790;18.750;2022-12-18T05:41:40;49.00;;;18.45;;
67041;SDS011;53949;47.790;18.750;2022-12-18T05:44:44;47.08;;;17.15;;
67041;SDS011;53949;47.790;18.750;2022-12-18T05:47:47;43.35;;;15.43;;
67041;SDS011;53949;47.790;18.750;2022-12-18T05:50:50;41.17;;;16.37;;
67041;SDS011;53949;47.790;18.750;2022-12-18T05:53:54;38.55;;;16.15;;
67041;SDS011;53949;47.790;18.750;2022-12-18T05:56:57;45.67;;;16.65;;
67041;SDS011;53949;47.790;18.750;2022-12-18T06:00:01;40.33;;;14.63;;
67041;SDS011;53949;47.790;18.750;2022-12-18T06:03:13;40.05;;;15.48;;
67041;SDS011;53949;47.790;18.750;2022-12-18T06:06:18;44.95;;;16.30;;
67041;SDS011;53949;47.790;18.750;2022-12-18T06:09:22;46.63;;;18.23;;
67041;SDS011;53949;47.790;18.750;2022-12-18T06:12:25;43.42;;;15.82;;
67041;SDS011;53949;47.790;18.750;2022-12-18T06:15:28;49.15;;;17.05;;
67041;SDS011;53949;47.790;18.750;2022-12-18T06:18:32;47.67;;;17.62;;
67041;SDS011;53949;47.790;18.750;2022-12-18T06:21:35;42.13;;;16.65;;
67041;SDS011;53949;47.790;18.750;2022-12-18T06:24:39;42.60;;;16.10;;
67041;SDS011;53949;47.790;18.750;2022-12-18T06:27:42;40.75;;;14.05;;
67041;SDS011;53949;47.790;18.750;2022-12-18T06:30:46;44.50;;;16.37;;
67041;SDS011;53949;47.790;18.750;2022-12-18T06:33:51;46.65;;;16.12;;
67041;SDS011;53949;47.790;18.750;2022-12-18T06:36:56;48.13;;;17.73;;
67041;SDS011;53949;47.790;18.750;2022-12-18T06:39:59;37.70;;;15.88;;
67041;SDS011;53949;47.790;18.750;2022-12-18T06:43:03;41.90;;;16.27;;
67041;SDS011;53949;47.790;18.750;2022-12-18T06:46:06;48.08;;;17.23;;
67041;SDS011;53949;47.790;18.750;2022-12-18T06:49:10;39.38;;;15.35;;
67041;SDS011;53949;47.790;18.750;2022-12-18T06:52:13;42.03;;;15.63;;
67041;SDS011;53949;47.790;18.750;2022-12-18T06:55:17;38.80;;;16.45;;
67041;SDS011;53949;47.790;18.750;2022-12-18T06:58:20;47.55;;;17.33;;
67041;SDS011;53949;47.790;18.750;2022-12-18T07:01:23;49.33;;;18.10;;
67041;SDS011;53949;47.790;18.750;2022-12-18T07:04:29;45.72;;;17.08;;
67041;SDS011;53949;47.790;18.750;2022-12-18T07:07:33;44.15;;;17.48;;
67041;SDS011;53949;47.790;18.750;2022-12-18T07:10:40;38.83;;;16.95;;
67041;SDS011;53949;47.790;18.750;2022-12-18T07:13:51;45.35;;;16.12;;
67041;SDS011;53949;47.790;18.750;2022-12-18T07:16:55;41.10;;;17.10;;
67041;SDS011;53949;47.790;18.750;2022-12-18T07:19:58;45.70;;;18.33;;
67041;SDS011;53949;47.790;18.750;2022-12-18T07:23:02;50.55;;;19.02;;
67041;SDS011;53949;47.790;18.750;2022-12-18T07:26:07;47.78;;;18.12;;
67041;SDS011;53949;47.790;18.750;2022-12-18T07:29:11;40.67;;;15.82;;
67041;SDS011;53949;47.790;18.750;2022-12-18T07:32:14;48.58;;;17.58;;
67041;SDS011;53949;47.790;18.750;2022-12-18T07:35:17;45.83;;;16.95;;
67041;SDS011;53949;47.790;18.750;2022-12-18T07:38:26;50.50;;;17.33;;
67041;SDS011;53949;47.790;18.750;2022-12-18T07:41:31;49.95;;;17.55;;
67041;SDS011;53949;47.790;18.750;2022-12-18T07:44:37;45.25;;;16.85;;
67041;SDS011;53949;47.790;18.750;2022-12-18T07:47:41;42.47;;;15.32;;
67041;SDS011;53949;47.790;18.750;2022-12-18T07:50:44;43.20;;;18.27;;
67041;SDS011;53949;47.790;18.750;2022-12-18T07:53:47;48.20;;;16.67;;
67041;SDS011;53949;47.790;18.750;2022-12-18T07:56:54;40.72;;;18.40;;
67041;SDS011;53949;47.790;18.750;2022-12-18T07:59:57;49.97;;;18.23;;
67041;SDS011;53949;47.790;18.750;2022-12-18T08:03:01;49.47;;;18.23;;
67041;SDS011;53949;47.790;18.750;2022-12-18T08:06:05;41.97;;;16.62;;
67041;SDS011;53949;47.790;18.750;2022-12-18T08:09:10;48.30;;;17.90;;
67041;SDS011;53949;47.790;18.750;2022-12-18T08:12:13;47.75;;;17.90;;
67041;SDS011;53949;47.790;18.750;2022-12-18T08:15:16;44.00;;;17.77;;
67041;SDS011;53949;47.790;18.750;2022-12-18T08:18:20;48.05;;;18.23;;
67041;SDS011;53949;47.790;18.750;2022-12-18T08:21:24;44.90;;;18.17;;
67041;SDS011;53949;47.790;18.750;2022-12-18T08:24:29;45.83;;;17.10;;
67041;SDS011;53949;47.790;18.750;2022-12-18T08:27:31;45.97;;;17.52;;
67041;SDS011;53949;47.790;18.750;2022-12-18T08:30:36;43.87;;;18.08;;
67041;SDS011;53949;47.790;18.750;2022-12-18T08:33:39;52.50;;;18.95;;
67041;SDS011;53949;47.790;18.750;2022-12-18T08:36:43;41.80;;;18.25;;
67041;SDS011;53949;47.790;18.750;2022-12-18T08:39:46;44.13;;;17.67;;
67041;SDS011;53949;47.790;18.750;2022-12-18T08:42:50;48.97;;;19.25;;
67041;SDS011;53949;47.790;18.750;2022-12-18T08:46:11;46.13;;;18.58;;
67041;SDS011;53949;47.790;18.750;2022-12-18T08:49:15;48.65;;;19.23;;
67041;SDS011;53949;47.790;18.750;2022-12-18T08:52:18;56.20;;;20.75;;
67041;SDS011;53949;47.790;18.750;2022-12-18T08:55:21;44.33;;;17.58;;
67041;SDS011;53949;47.790;18.750;2022-12-18T08:58:24;48.75;;;18.80;;
67041;SDS011;53949;47.790;18.750;2022-12-18T09:01:27;47.22;;;18.30;;
67041;SDS011;53949;47.790;18.750;2022-12-18T09:04:31;50.72;;;19.33;;
67041;SDS011;53949;47.790;18.750;2022-12-18T09:07:34;51.00;;;19.90;;
67041;SDS011;53949;47.790;18.750;2022-12-18T09:10:44;57.50;;;18.27;;
67041;SDS011;53949;47.790;18.750;2022-12-18T09:13:48;50.08;;;20.85;;
67041;SDS011;53949;47.790;18.750;2022-12-18T09:16:51;44.28;;;16.92;;
67041;SDS011;53949;47.790;18.750;2022-12-18T09:19:54;49.95;;;18.70;;
67041;SDS011;53949;47.790;18.750;2022-12-18T09:22:58;45.58;;;17.48;;
67041;SDS011;53949;47.790;18.750;2022-12-18T09:26:02;42.35;;;18.02;;
67041;SDS011;53949;47.790;18.750;2022-12-18T09:29:05;58.87;;;22.08;;
67041;SDS011;53949;47.790;18.750;2022-12-18T09:32:11;50.67;;;18.90;;
67041;SDS011;53949;47.790;18.750;2022-12-18T09:35:23;52.53;;;19.92;;
67041;SDS011;53949;47.790;18.750;2022-12-18T09:38:27;47.50;;;18.83;;
67041;SDS011;53949;47.790;18.750;2022-12-18T09:41:40;61.20;;;21.87;;
67041;SDS011;53949;47.790;18.750;2022-12-18T09:44:58;45.75;;;19.83;;
67041;SDS011;53949;47.790;18.750;2022-12-18T09:48:02;50.85;;;19.37;;
67041;SDS011;53949;47.790;18.750;2022-12-18T09:51:17;55.30;;;19.57;;
67041;SDS011;53949;47.790;18.750;2022-12-18T09:54:28;52.88;;;20.48;;
67041;SDS011;53949;47.790;18.750;2022-12-18T09:57:35;50.45;;;19.80;;
67041;SDS011;53949;47.790;18.750;2022-12-18T10:00:42;58.42;;;21.25;;
67041;SDS011;53949;47.790;18.750;2022-12-18T10:03:45;52.95;;;21.27;;
67041;SDS011;53949;47.790;18.750;2022-12-18T10:06:56;52.15;;;19.92;;
67041;SDS011;53949;47.790;18.750;2022-12-18T10:10:19;38.75;;;15.10;;
67041;SDS011;53949;47.790;18.750;2022-12-18T10:13:31;48.65;;;19.90;;
67041;SDS011;53949;47.790;18.750;2022-12-18T10:19:56;55.27;;;19.57;;
67041;SDS011;53949;47.790;18.750;2022-12-18T10:23:04;55.95;;;20.67;;
67041;SDS011;53949;47.790;18.750;2022-12-18T10:26:17;60.33;;;21.62;;
67041;SDS011;53949;47.790;18.750;2022-12-18T10:29:22;63.42;;;23.67;;
67041;SDS011;53949;47.790;18.750;2022-12-18T10:32:26;55.75;;;21.67;;
67041;SDS011;53949;47.790;18.750;2022-12-18T10:35:31;48.45;;;19.00;;
67041;SDS011;53949;47.790;18.750;2022-12-18T10:38:34;53.00;;;20.10;;
67041;SDS011;53949;47.790;18.750;2022-12-18T10:41:37;51.05;;;20.05;;
67041;SDS011;53949;47.790;18.750;2022-12-18T10:44:40;52.30;;;19.58;;
67041;SDS011;53949;47.790;18.750;2022-12-18T10:47:44;51.05;;;20.23;;
67041;SDS011;53949;47.790;18.750;2022-12-18T10:50:49;46.22;;;19.15;;
67041;SDS011;53949;47.790;18.750;2022-12-18T10:54:19;59.42;;;22.50;;
67041;SDS011;53949;47.790;18.750;2022-12-18T11:00:34;52.95;;;19.85;;
67041;SDS011;53949;47.790;18.750;2022-12-18T11:03:42;48.05;;;18.35;;
67041;SDS011;53949;47.790;18.750;2022-12-18T11:13:24;56.13;;;19.40;;
67041;SDS011;53949;47.790;18.750;2022-12-18T11:16:30;50.47;;;18.98;;
67041;SDS011;53949;47.790;18.750;2022-12-18T11:19:37;46.45;;;18.85;;
67041;SDS011;53949;47.790;18.750;2022-12-18T11:22:42;51.08;;;19.85;;
67041;SDS011;53949;47.790;18.750;2022-12-18T11:25:55;46.25;;;19.33;;
67041;SDS011;53949;47.790;18.750;2022-12-18T11:29:10;44.37;;;18.77;;
67041;SDS011;53949;47.790;18.750;2022-12-18T11:32:27;46.92;;;19.15;;
67041;SDS011;53949;47.790;18.750;2022-12-18T11:35:38;48.87;;;19.48;;
67041;SDS011;53949;47.790;18.750;2022-12-18T11:38:45;46.55;;;18.98;;
67041;SDS011;53949;47.790;18.750;2022-12-18T11:41:51;46.67;;;19.23;;
67041;SDS011;53949;47.790;18.750;2022-12-18T11:48:17;44.15;;;19.15;;
67041;SDS011;53949;47.790;18.750;2022-12-18T11:51:34;45.28;;;20.33;;
67041;SDS011;53949;47.790;18.750;2022-12-18T11:54:39;46.10;;;20.77;;
67041;SDS011;53949;47.790;18.750;2022-12-18T12:07:51;46.33;;;20.90;;
67041;SDS011;53949;47.790;18.750;2022-12-18T12:14:19;46.00;;;21.83;;
67041;SDS011;53949;47.790;18.750;2022-12-18T12:21:16;50.65;;;20.83;;
67041;SDS011;53949;47.790;18.750;2022-12-18T12:27:47;44.88;;;21.55;;
67041;SDS011;53949;47.790;18.750;2022-12-18T12:40:22;46.78;;;20.70;;
67041;SDS011;53949;47.790;18.750;2022-12-18T12:46:54;37.95;;;18.25;;
67041;SDS011;53949;47.790;18.750;2022-12-18T12:50:01;37.92;;;18.87;;
67041;SDS011;53949;47.790;18.750;2022-12-18T12:53:09;37.03;;;18.87;;
67041;SDS011;53949;47.790;18.750;2022-12-18T12:56:21;42.72;;;18.52;;
67041;SDS011;53949;47.790;18.750;2022-12-18T13:03:06;43.33;;;20.00;;
67041;SDS011;53949;47.790;18.750;2022-12-18T13:06:39;46.15;;;20.62;;
67041;SDS011;53949;47.790;18.750;2022-12-18T13:13:13;43.87;;;21.47;;
67041;SDS011;53949;47.790;18.750;2022-12-18T13:16:26;43.65;;;20.77;;
67041;SDS011;53949;47.790;18.750;2022-12-18T13:19:29;45.08;;;20.58;;
67041;SDS011;53949;47.790;18.750;2022-12-18T13:25:37;46.33;;;21.40;;
67041;SDS011;53949;47.790;18.750;2022-12-18T13:41:29;36.42;;;18.05;;
67041;SDS011;53949;47.790;18.750;2022-12-18T13:44:35;45.33;;;20.05;;
67041;SDS011;53949;47.790;18.750;2022-12-18T13:47:43;42.15;;;21.00;;
67041;SDS011;53949;47.790;18.750;2022-12-18T13:51:00;41.45;;;21.37;;
67041;SDS011;53949;47.790;18.750;2022-12-18T13:57:26;41.47;;;20.98;;
67041;SDS011;53949;47.790;18.750;2022-12-18T14:00:31;45.90;;;21.00;;
67041;SDS011;53949;47.790;18.750;2022-12-18T14:03:35;58.67;;;24.75;;
67041;SDS011;53949;47.790;18.750;2022-12-18T14:06:38;41.35;;;19.60;;
67041;SDS011;53949;47.790;18.750;2022-12-18T14:10:00;45.63;;;20.65;;
67041;SDS011;53949;47.790;18.750;2022-12-18T14:16:29;51.75;;;22.83;;
67041;SDS011;53949;47.790;18.750;2022-12-18T14:19:33;49.83;;;21.60;;
67041;SDS011;53949;47.790;18.750;2022-12-18T14:22:37;44.08;;;19.52;;
67041;SDS011;53949;47.790;18.750;2022-12-18T14:25:45;61.15;;;30.25;;
67041;SDS011;53949;47.790;18.750;2022-12-18T14:28:48;46.83;;;21.00;;
67041;SDS011;53949;47.790;18.750;2022-12-18T14:32:09;47.60;;;19.67;;
67041;SDS011;53949;47.790;18.750;2022-12-18T14:35:23;55.58;;;24.37;;
67041;SDS011;53949;47.790;18.750;2022-12-18T14:38:47;47.15;;;20.17;;
67041;SDS011;53949;47.790;18.750;2022-12-18T14:41:52;49.45;;;21.12;;
67041;SDS011;53949;47.790;18.750;2022-12-18T14:48:44;58.42;;;23.05;;
67041;SDS011;53949;47.790;18.750;2022-12-18T14:51:51;60.05;;;24.15;;
67041;SDS011;53949;47.790;18.750;2022-12-18T14:54:55;78.37;;;28.95;;
67041;SDS011;53949;47.790;18.750;2022-12-18T14:57:58;80.15;;;28.40;;
67041;SDS011;53949;47.790;18.750;2022-12-18T15:01:02;72.10;;;26.65;;
67041;SDS011;53949;47.790;18.750;2022-12-18T15:04:21;68.15;;;26.25;;
67041;SDS011;53949;47.790;18.750;2022-12-18T15:07:40;64.40;;;24.33;;
67041;SDS011;53949;47.790;18.750;2022-12-18T15:10:46;59.30;;;24.50;;
67041;SDS011;53949;47.790;18.750;2022-12-18T15:13:54;62.08;;;26.87;;
67041;SDS011;53949;47.790;18.750;2022-12-18T15:16:59;72.65;;;28.55;;
67041;SDS011;53949;47.790;18.750;2022-12-18T15:20:08;78.60;;;28.15;;
67041;SDS011;53949;47.790;18.750;2022-12-18T15:23:34;68.72;;;28.33;;
67041;SDS011;53949;47.790;18.750;2022-12-18T15:26:49;68.77;;;26.03;;
67041;SDS011;53949;47.790;18.750;2022-12-18T15:29:59;62.47;;;24.27;;
67041;SDS011;53949;47.790;18.750;2022-12-18T15:33:25;60.88;;;24.45;;
67041;SDS011;53949;47.790;18.750;2022-12-18T15:36:30;61.25;;;25.48;;
67041;SDS011;53949;47.790;18.750;2022-12-18T15:39:34;63.15;;;25.50;;
67041;SDS011;53949;47.790;18.750;2022-12-18T15:42:38;51.22;;;23.70;;
67041;SDS011;53949;47.790;18.750;2022-12-18T15:46:11;63.45;;;25.23;;
67041;SDS011;53949;47.790;18.750;2022-12-18T15:49:20;58.50;;;23.50;;
67041;SDS011;53949;47.790;18.750;2022-12-18T15:52:24;63.63;;;24.87;;
67041;SDS011;53949;47.790;18.750;2022-12-18T15:55:29;56.03;;;23.62;;
67041;SDS011;53949;47.790;18.750;2022-12-18T15:58:52;60.33;;;22.92;;
67041;SDS011;53949;47.790;18.750;2022-12-18T16:01:57;52.60;;;21.53;;
67041;SDS011;53949;47.790;18.750;2022-12-18T16:05:01;59.00;;;22.67;;
67041;SDS011;53949;47.790;18.750;2022-12-18T16:08:05;57.60;;;22.08;;
67041;SDS011;53949;47.790;18.750;2022-12-18T16:11:31;59.03;;;22.90;;
67041;SDS011;53949;47.790;18.750;2022-12-18T16:14:44;64.00;;;23.80;;
67041;SDS011;53949;47.790;18.750;2022-12-18T16:17:52;63.33;;;22.20;;
67041;SDS011;53949;47.790;18.750;2022-12-18T16:20:56;56.67;;;21.67;;
67041;SDS011;53949;47.790;18.750;2022-12-18T16:24:02;54.78;;;21.67;;
67041;SDS011;53949;47.790;18.750;2022-12-18T16:27:06;56.63;;;21.10;;
67041;SDS011;53949;47.790;18.750;2022-12-18T16:30:16;59.13;;;22.30;;
67041;SDS011;53949;47.790;18.750;2022-12-18T16:33:21;55.22;;;23.42;;
67041;SDS011;53949;47.790;18.750;2022-12-18T16:36:26;53.50;;;22.17;;
67041;SDS011;53949;47.790;18.750;2022-12-18T16:39:30;56.35;;;21.52;;
67041;SDS011;53949;47.790;18.750;2022-12-18T16:42:37;53.17;;;20.58;;
67041;SDS011;53949;47.790;18.750;2022-12-18T16:45:42;56.22;;;21.08;;
67041;SDS011;53949;47.790;18.750;2022-12-18T16:48:48;53.83;;;21.62;;
67041;SDS011;53949;47.790;18.750;2022-12-18T16:51:53;56.15;;;21.87;;
67041;SDS011;53949;47.790;18.750;2022-12-18T16:54:59;63.45;;;23.52;;
67041;SDS011;53949;47.790;18.750;2022-12-18T16:58:03;56.15;;;21.30;;
67041;SDS011;53949;47.790;18.750;2022-12-18T17:01:09;59.22;;;20.62;;
67041;SDS011;53949;47.790;18.750;2022-12-18T17:04:15;54.30;;;20.35;;
67041;SDS011;53949;47.790;18.750;2022-12-18T17:07:20;62.85;;;21.77;;
67041;SDS011;53949;47.790;18.750;2022-12-18T17:10:25;52.83;;;20.55;;
67041;SDS011;53949;47.790;18.750;2022-12-18T17:13:33;58.22;;;22.10;;
67041;SDS011;53949;47.790;18.750;2022-12-18T17:16:37;49.08;;;20.67;;
67041;SDS011;53949;47.790;18.750;2022-12-18T17:19:42;50.90;;;21.75;;
67041;SDS011;53949;47.790;18.750;2022-12-18T17:22:46;46.03;;;18.40;;
67041;SDS011;53949;47.790;18.750;2022-12-18T17:25:54;50.22;;;18.87;;
67041;SDS011;53949;47.790;18.750;2022-12-18T17:28:59;43.58;;;18.37;;
67041;SDS011;53949;47.790;18.750;2022-12-18T17:32:04;53.83;;;19.60;;
67041;SDS011;53949;47.790;18.750;2022-12-18T17:35:08;47.13;;;18.27;;
67041;SDS011;53949;47.790;18.750;2022-12-18T17:38:13;52.83;;;20.37;;
67041;SDS011;53949;47.790;18.750;2022-12-18T17:41:18;52.28;;;19.48;;
67041;SDS011;53949;47.790;18.750;2022-12-18T17:44:23;43.80;;;16.95;;
67041;SDS011;53949;47.790;18.750;2022-12-18T17:50:34;47.92;;;19.23;;
67041;SDS011;53949;47.790;18.750;2022-12-18T17:53:39;45.30;;;16.13;;
67041;SDS011;53949;47.790;18.750;2022-12-18T17:56:46;45.12;;;17.70;;
67041;SDS011;53949;47.790;18.750;2022-12-18T17:59:51;52.80;;;18.83;;
67041;SDS011;53949;47.790;18.750;2022-12-18T18:02:57;50.85;;;17.90;;
67041;SDS011;53949;47.790;18.750;2022-12-18T18:06:11;54.65;;;18.02;;
67041;SDS011;53949;47.790;18.750;2022-12-18T18:09:16;50.30;;;18.58;;
67041;SDS011;53949;47.790;18.750;2022-12-18T18:12:22;47.85;;;17.85;;
67041;SDS011;53949;47.790;18.750;2022-12-18T18:15:53;56.22;;;19.98;;
67041;SDS011;53949;47.790;18.750;2022-12-18T18:19:06;51.90;;;18.70;;
67041;SDS011;53949;47.790;18.750;2022-12-18T18:22:16;49.90;;;18.23;;
67041;SDS011;53949;47.790;18.750;2022-12-18T18:25:23;50.12;;;18.90;;
67041;SDS011;53949;47.790;18.750;2022-12-18T18:28:27;48.28;;;18.40;;
67041;SDS011;53949;47.790;18.750;2022-12-18T18:31:32;49.88;;;17.87;;
67041;SDS011;53949;47.790;18.750;2022-12-18T18:34:43;42.15;;;15.85;;
67041;SDS011;53949;47.790;18.750;2022-12-18T18:37:47;50.53;;;18.87;;
67041;SDS011;53949;47.790;18.750;2022-12-18T18:40:58;51.25;;;18.40;;
67041;SDS011;53949;47.790;18.750;2022-12-18T18:44:04;47.25;;;17.73;;
67041;SDS011;53949;47.790;18.750;2022-12-18T18:47:08;52.83;;;18.70;;
67041;SDS011;53949;47.790;18.750;2022-12-18T18:50:14;46.05;;;18.75;;
67041;SDS011;53949;47.790;18.750;2022-12-18T18:53:19;50.78;;;21.75;;
67041;SDS011;53949;47.790;18.750;2022-12-18T18:56:24;55.55;;;21.52;;
67041;SDS011;53949;47.790;18.750;2022-12-18T18:59:54;52.45;;;18.20;;
67041;SDS011;53949;47.790;18.750;2022-12-18T19:02:58;61.13;;;18.70;;
67041;SDS011;53949;47.790;18.750;2022-12-18T19:06:03;49.88;;;18.27;;
67041;SDS011;53949;47.790;18.750;2022-12-18T19:09:09;46.60;;;17.23;;
67041;SDS011;53949;47.790;18.750;2022-12-18T19:12:16;45.47;;;16.58;;
67041;SDS011;53949;47.790;18.750;2022-12-18T19:15:42;50.22;;;17.45;;
67041;SDS011;53949;47.790;18.750;2022-12-18T19:18:47;42.30;;;15.52;;
67041;SDS011;53949;47.790;18.750;2022-12-18T19:21:53;50.53;;;17.80;;
67041;SDS011;53949;47.790;18.750;2022-12-18T19:24:57;42.30;;;18.35;;
67041;SDS011;53949;47.790;18.750;2022-12-18T19:28:04;46.25;;;16.95;;
67041;SDS011;53949;47.790;18.750;2022-12-18T19:31:11;45.53;;;16.98;;
67041;SDS011;53949;47.790;18.750;2022-12-18T19:34:20;59.47;;;22.02;;
67041;SDS011;53949;47.790;18.750;2022-12-18T19:37:25;52.85;;;19.70;;
67041;SDS011;53949;47.790;18.750;2022-12-18T19:40:30;52.58;;;19.08;;